Time,TemperatureF,DewpointF,PressureIn,WindDirection,WindDirectionDegrees,WindSpeedMPH,WindSpeedGustMPH,Humidity,HourlyPrecipIn,Conditions,Clouds,dailyrainin,SoftwareType,DateUTC
2013-09-22 00:06:00,63.1,61.0,29.67,WNW,288,3.0,6.0,91,0.00,,,0.00,weatherlink.com 1.10,2013-09-22 04:06:00,
2013-09-22 00:21:00,63.2,61.0,29.66,ENE,65,3.0,6.0,91,0.00,,,0.00,weatherlink.com 1.10,2013-09-22 04:21:00,
2013-09-22 00:36:00,63.1,61.0,29.66,West,278,4.0,7.0,91,0.00,,,0.00,weatherlink.com 1.10,2013-09-22 04:36:00,
2013-09-22 00:51:00,63.0,61.0,29.65,NE,39,3.0,10.0,92,0.00,,,0.00,weatherlink.com 1.10,2013-09-22 04:51:00,
2013-09-22 01:06:00,62.8,61.0,29.64,South,170,4.0,7.0,93,0.00,,,0.00,weatherlink.com 1.10,2013-09-22 05:06:00,
2013-09-22 01:21:00,62.3,61.0,29.63,NNE,14,2.0,7.0,94,0.01,,,0.01,weatherlink.com 1.10,2013-09-22 05:21:00,
2013-09-22 01:51:00,62.1,61.0,29.61,West,275,1.0,12.0,96,0.02,,,0.02,weatherlink.com 1.10,2013-09-22 05:51:00,
2013-09-22 02:06:00,62.1,61.0,29.60,ESE,115,2.0,7.0,96,0.03,,,0.03,weatherlink.com 1.10,2013-09-22 06:06:00,
2013-09-22 02:21:00,62.1,61.0,29.59,NNW,338,2.0,7.0,97,0.03,,,0.04,weatherlink.com 1.10,2013-09-22 06:21:00,
2013-09-22 02:36:00,62.1,61.0,29.59,NNE,33,2.0,9.0,97,0.03,,,0.05,weatherlink.com 1.10,2013-09-22 06:36:00,
2013-09-22 02:51:00,62.1,61.0,29.59,NNE,27,6.0,9.0,97,0.06,,,0.08,weatherlink.com 1.10,2013-09-22 06:51:00,
2013-09-22 03:06:00,62.2,62.0,29.60,NW,321,0.0,10.0,98,0.26,,,0.29,weatherlink.com 1.10,2013-09-22 07:06:00,
2013-09-22 03:21:00,60.7,60.0,29.60,WNW,302,0.0,7.0,96,0.45,,,0.49,weatherlink.com 1.10,2013-09-22 07:21:00,
2013-09-22 03:36:00,59.6,59.0,29.59,WSW,246,1.0,3.0,97,0.51,,,0.56,weatherlink.com 1.10,2013-09-22 07:36:00,
2013-09-22 03:51:00,59.3,59.0,29.59,NE,43,1.0,3.0,97,0.53,,,0.61,weatherlink.com 1.10,2013-09-22 07:51:00,
2013-09-22 04:06:00,59.2,58.0,29.60,North,355,0.0,3.0,97,0.32,,,0.64,weatherlink.com 1.10,2013-09-22 08:06:00,
2013-09-22 04:21:00,59.0,58.0,29.61,WNW,285,1.0,101.0,97,0.18,,,0.67,weatherlink.com 1.10,2013-09-22 08:21:00,
2013-09-22 04:37:00,58.5,58.0,29.61,West,277,0.0,3.0,97,0.12,,,0.68,weatherlink.com 1.10,2013-09-22 08:37:00,
2013-09-22 04:52:00,58.0,57.0,29.60,NNW,331,0.0,71.0,97,0.08,,,0.69,weatherlink.com 1.10,2013-09-22 08:52:00,
2013-09-22 05:07:00,57.6,57.0,29.61,WSW,257,1.0,2.0,97,0.05,,,0.70,weatherlink.com 1.10,2013-09-22 09:07:00,
2013-09-22 05:22:00,57.0,56.0,29.61,West,281,0.0,5.0,97,0.05,,,0.72,weatherlink.com 1.10,2013-09-22 09:22:00,
2013-09-22 05:37:00,56.7,56.0,29.63,WNW,295,0.0,2.0,97,0.06,,,0.74,weatherlink.com 1.10,2013-09-22 09:37:00,
2013-09-22 05:52:00,56.2,55.0,29.61,WNW,298,0.0,4.0,97,0.07,,,0.76,weatherlink.com 1.10,2013-09-22 09:52:00,
2013-09-22 06:07:00,55.9,55.0,29.62,NNW,328,1.0,3.0,98,0.07,,,0.77,weatherlink.com 1.10,2013-09-22 10:07:00,
2013-09-22 06:22:00,55.8,55.0,29.62,WNW,284,0.0,2.0,98,0.04,,,0.77,weatherlink.com 1.10,2013-09-22 10:22:00,
2013-09-22 06:37:00,55.7,55.0,29.62,West,262,0.0,204.0,98,0.03,,,0.77,weatherlink.com 1.10,2013-09-22 10:37:00,
2013-09-22 06:52:00,55.7,55.0,29.62,NNW,335,1.0,2.0,98,0.01,,,0.77,weatherlink.com 1.10,2013-09-22 10:52:00,
2013-09-22 07:07:00,55.8,55.0,29.62,North,9,1.0,2.0,98,0.00,,,0.77,weatherlink.com 1.10,2013-09-22 11:07:00,
2013-09-22 07:22:00,55.8,55.0,29.63,SW,225,1.0,3.0,97,0.00,,,0.77,weatherlink.com 1.10,2013-09-22 11:22:00,
2013-09-22 07:37:00,55.7,55.0,29.64,NE,34,1.0,2.0,97,0.00,,,0.77,weatherlink.com 1.10,2013-09-22 11:37:00,
2013-09-22 07:52:00,55.7,55.0,29.63,SW,219,0.0,4.0,97,0.00,,,0.77,weatherlink.com 1.10,2013-09-22 11:52:00,
2013-09-22 08:07:00,55.7,55.0,29.62,West,278,1.0,3.0,97,0.00,,,0.77,weatherlink.com 1.10,2013-09-22 12:07:00,
2013-09-22 08:22:00,55.8,55.0,29.63,WNW,295,1.0,5.0,96,0.00,,,0.77,weatherlink.com 1.10,2013-09-22 12:22:00,
2013-09-22 08:37:00,55.8,55.0,29.64,NNW,336,3.0,4.0,96,0.00,,,0.77,weatherlink.com 1.10,2013-09-22 12:37:00,
2013-09-22 08:52:00,55.5,54.0,29.64,WSW,252,0.0,4.0,95,0.00,,,0.77,weatherlink.com 1.10,2013-09-22 12:52:00,
2013-09-22 09:07:00,55.4,54.0,29.64,NE,39,2.0,3.0,95,0.00,,,0.77,weatherlink.com 1.10,2013-09-22 13:07:00,
2013-09-22 09:22:00,55.5,54.0,29.64,NW,311,1.0,4.0,94,0.00,,,0.77,weatherlink.com 1.10,2013-09-22 13:22:00,
2013-09-22 09:37:00,55.7,54.0,29.65,West,270,2.0,6.0,95,0.00,,,0.77,weatherlink.com 1.10,2013-09-22 13:37:00,
2013-09-22 09:52:00,56.1,53.0,29.66,NNW,335,2.0,8.0,90,0.00,,,0.77,weatherlink.com 1.10,2013-09-22 13:52:00,
2013-09-22 10:07:00,55.5,52.0,29.65,WNW,300,2.0,6.0,89,0.00,,,0.77,weatherlink.com 1.10,2013-09-22 14:07:00,
2013-09-22 10:22:00,56.3,52.0,29.66,NW,311,1.0,9.0,85,0.00,,,0.77,weatherlink.com 1.10,2013-09-22 14:22:00,
2013-09-22 10:37:00,56.9,52.0,29.66,SW,233,2.0,6.0,83,0.00,,,0.77,weatherlink.com 1.10,2013-09-22 14:37:00,
2013-09-22 10:52:00,56.7,52.0,29.66,WNW,295,4.0,6.0,83,0.00,,,0.77,weatherlink.com 1.10,2013-09-22 14:52:00,
2013-09-22 11:07:00,56.5,52.0,29.66,North,1,1.0,7.0,84,0.00,,,0.77,weatherlink.com 1.10,2013-09-22 15:07:00,
2013-09-22 11:22:00,57.0,51.0,29.65,West,270,1.0,9.0,81,0.00,,,0.77,weatherlink.com 1.10,2013-09-22 15:22:00,
2013-09-22 11:37:00,58.4,53.0,29.65,NW,312,3.0,9.0,81,0.00,,,0.77,weatherlink.com 1.10,2013-09-22 15:37:00,
2013-09-22 11:52:00,59.4,51.0,29.66,WNW,302,1.0,7.0,74,0.00,,,0.77,weatherlink.com 1.10,2013-09-22 15:52:00,
2013-09-22 12:07:00,59.7,52.0,29.66,West,279,2.0,5.0,75,0.00,,,0.77,weatherlink.com 1.10,2013-09-22 16:07:00,
2013-09-22 12:22:00,59.8,50.0,29.66,North,352,2.0,8.0,69,0.00,,,0.77,weatherlink.com 1.10,2013-09-22 16:22:00,
2013-09-22 12:37:00,58.7,50.0,29.67,NW,304,4.0,7.0,73,0.00,,,0.77,weatherlink.com 1.10,2013-09-22 16:37:00,
2013-09-22 12:52:00,58.7,50.0,29.67,NE,53,1.0,7.0,72,0.00,,,0.77,weatherlink.com 1.10,2013-09-22 16:52:00,
2013-09-22 13:07:00,58.5,51.0,29.67,WNW,289,3.0,10.0,75,0.00,,,0.77,weatherlink.com 1.10,2013-09-22 17:07:00,
2013-09-22 13:22:00,58.6,50.0,29.67,NW,308,7.0,13.0,74,0.00,,,0.77,weatherlink.com 1.10,2013-09-22 17:22:00,
2013-09-22 13:37:00,58.9,50.0,29.67,West,264,5.0,12.0,73,0.00,,,0.77,weatherlink.com 1.10,2013-09-22 17:37:00,
2013-09-22 13:52:00,60.3,51.0,29.66,WNW,286,3.0,8.0,71,0.00,,,0.77,weatherlink.com 1.10,2013-09-22 17:52:00,
2013-09-22 14:07:00,60.0,50.0,29.67,WSW,248,4.0,11.0,69,0.00,,,0.77,weatherlink.com 1.10,2013-09-22 18:07:00,
2013-09-22 14:22:00,59.5,50.0,29.67,WNW,292,4.0,7.0,72,0.00,,,0.77,weatherlink.com 1.10,2013-09-22 18:22:00,
2013-09-22 14:37:00,59.5,50.0,29.67,NW,312,4.0,10.0,72,0.00,,,0.77,weatherlink.com 1.10,2013-09-22 18:37:00,
2013-09-22 14:52:00,58.4,50.0,29.67,NNW,345,3.0,9.0,73,0.00,,,0.77,weatherlink.com 1.10,2013-09-22 18:52:00,
2013-09-22 15:07:00,57.3,51.0,29.67,SW,236,0.0,10.0,79,0.00,,,0.77,weatherlink.com 1.10,2013-09-22 19:07:00,
2013-09-22 15:22:00,58.3,51.0,29.68,West,264,5.0,10.0,77,0.00,,,0.77,weatherlink.com 1.10,2013-09-22 19:22:00,
2013-09-22 15:37:00,57.5,50.0,29.68,WNW,294,2.0,7.0,77,0.00,,,0.77,weatherlink.com 1.10,2013-09-22 19:37:00,
2013-09-22 15:52:00,56.9,50.0,29.68,SSE,158,1.0,8.0,79,0.00,,,0.77,weatherlink.com 1.10,2013-09-22 19:52:00,
2013-09-22 16:07:00,58.0,52.0,29.68,NW,316,3.0,5.0,79,0.00,,,0.77,weatherlink.com 1.10,2013-09-22 20:07:00,
2013-09-22 16:22:00,56.8,50.0,29.70,East,79,3.0,12.0,78,0.00,,,0.77,weatherlink.com 1.10,2013-09-22 20:22:00,
2013-09-22 16:37:00,53.7,49.0,29.70,WNW,302,5.0,10.0,83,0.00,,,0.77,weatherlink.com 1.10,2013-09-22 20:37:00,
2013-09-22 16:53:00,52.8,48.0,29.71,NNW,336,0.0,11.0,85,0.00,,,0.77,weatherlink.com 1.10,2013-09-22 20:53:00,
2013-09-22 17:08:00,52.6,49.0,29.72,West,281,2.0,6.0,87,0.00,,,0.77,weatherlink.com 1.10,2013-09-22 21:08:00,
2013-09-22 17:23:00,52.7,49.0,29.72,WNW,294,3.0,8.0,86,0.00,,,0.77,weatherlink.com 1.10,2013-09-22 21:23:00,
2013-09-22 17:38:00,52.8,48.0,29.72,NW,326,1.0,9.0,83,0.00,,,0.77,weatherlink.com 1.10,2013-09-22 21:38:00,
2013-09-22 17:53:00,52.5,48.0,29.73,West,259,4.0,9.0,84,0.00,,,0.77,weatherlink.com 1.10,2013-09-22 21:53:00,
2013-09-22 18:08:00,52.2,48.0,29.73,NW,315,4.0,7.0,85,0.00,,,0.77,weatherlink.com 1.10,2013-09-22 22:08:00,
2013-09-22 18:23:00,51.6,48.0,29.74,WNW,285,4.0,13.0,86,0.00,,,0.77,weatherlink.com 1.10,2013-09-22 22:23:00,
2013-09-22 18:38:00,50.1,47.0,29.74,West,259,4.0,9.0,88,0.00,,,0.77,weatherlink.com 1.10,2013-09-22 22:38:00,
2013-09-22 18:53:00,49.7,47.0,29.75,NW,314,1.0,7.0,89,0.00,,,0.77,weatherlink.com 1.10,2013-09-22 22:53:00,
2013-09-22 19:08:00,49.5,47.0,29.76,WNW,295,2.0,6.0,90,0.00,,,0.77,weatherlink.com 1.10,2013-09-22 23:08:00,
2013-09-22 19:23:00,49.5,47.0,29.77,WSW,240,0.0,6.0,91,0.00,,,0.77,weatherlink.com 1.10,2013-09-22 23:23:00,
2013-09-22 19:38:00,49.5,46.0,29.77,NNW,340,4.0,5.0,89,0.00,,,0.77,weatherlink.com 1.10,2013-09-22 23:38:00,
2013-09-22 19:53:00,49.5,46.0,29.78,WNW,292,3.0,8.0,86,0.00,,,0.77,weatherlink.com 1.10,2013-09-22 23:53:00,
2013-09-22 20:08:00,49.5,45.0,29.78,WSW,257,2.0,9.0,84,0.00,,,0.77,weatherlink.com 1.10,2013-09-23 00:08:00,
2013-09-22 20:23:00,49.4,45.0,29.78,WNW,302,2.0,9.0,84,0.00,,,0.77,weatherlink.com 1.10,2013-09-23 00:23:00,
2013-09-22 20:38:00,49.4,44.0,29.79,NW,321,2.0,8.0,83,0.00,,,0.77,weatherlink.com 1.10,2013-09-23 00:38:00,
2013-09-22 20:53:00,49.1,44.0,29.79,NW,325,4.0,10.0,82,0.00,,,0.77,weatherlink.com 1.10,2013-09-23 00:53:00,
2013-09-22 21:08:00,48.6,43.0,29.80,WSW,249,4.0,14.0,80,0.00,,,0.77,weatherlink.com 1.10,2013-09-23 01:08:00,
2013-09-22 21:23:00,47.9,42.0,29.81,West,281,7.0,10.0,80,0.00,,,0.77,weatherlink.com 1.10,2013-09-23 01:23:00,
2013-09-22 21:38:00,47.1,42.0,29.82,ENE,77,1.0,12.0,83,0.00,,,0.77,weatherlink.com 1.10,2013-09-23 01:38:00,
2013-09-22 21:53:00,46.9,42.0,29.82,NNE,18,3.0,9.0,84,0.00,,,0.77,weatherlink.com 1.10,2013-09-23 01:53:00,
2013-09-22 22:08:00,46.8,42.0,29.83,NW,318,3.0,8.0,84,0.00,,,0.77,weatherlink.com 1.10,2013-09-23 02:08:00,
2013-09-22 22:23:00,46.6,43.0,29.83,NW,313,4.0,5.0,86,0.00,,,0.77,weatherlink.com 1.10,2013-09-23 02:23:00,
2013-09-22 22:38:00,46.5,43.0,29.83,NNW,336,2.0,12.0,86,0.00,,,0.77,weatherlink.com 1.10,2013-09-23 02:38:00,
2013-09-22 22:53:00,46.1,42.0,29.84,WNW,295,1.0,6.0,86,0.00,,,0.77,weatherlink.com 1.10,2013-09-23 02:53:00,
2013-09-22 23:09:00,45.6,42.0,29.84,WNW,297,2.0,7.0,87,0.00,,,0.77,weatherlink.com 1.10,2013-09-23 03:09:00,
2013-09-22 23:24:00,45.3,41.0,29.84,WSW,256,4.0,8.0,86,0.00,,,0.77,weatherlink.com 1.10,2013-09-23 03:24:00,
2013-09-22 23:39:00,44.9,41.0,29.84,NNW,328,4.0,10.0,87,0.00,,,0.77,weatherlink.com 1.10,2013-09-23 03:39:00,
2013-09-22 23:54:00,44.7,41.0,29.84,ENE,65,1.0,8.0,88,0.00,,,0.77,weatherlink.com 1.10,2013-09-23 03:54:00,